sensor_id;sensor_type;location;lat;lon;timestamp;P1;durP1;ratioP1;P2;durP2;ratioP2
20375;SDS011;10347;51.828;6.466;2024-02-21T00:00:14;21.60;;;10.30;;
20375;SDS011;10347;51.828;6.466;2024-02-21T00:02:40;26.50;;;11.07;;
20375;SDS011;10347;51.828;6.466;2024-02-21T00:05:06;26.85;;;11.25;;
20375;SDS011;10347;51.828;6.466;2024-02-21T00:07:32;26.45;;;10.35;;
20375;SDS011;10347;51.828;6.466;2024-02-21T00:09:57;24.23;;;10.75;;
20375;SDS011;10347;51.828;6.466;2024-02-21T00:12:23;18.38;;;9.55;;
20375;SDS011;10347;51.828;6.466;2024-02-21T00:14:49;20.33;;;10.20;;
20375;SDS011;10347;51.828;6.466;2024-02-21T00:17:15;29.38;;;11.95;;
20375;SDS011;10347;51.828;6.466;2024-02-21T00:19:40;28.10;;;10.02;;
20375;SDS011;10347;51.828;6.466;2024-02-21T00:22:06;22.67;;;9.82;;
20375;SDS011;10347;51.828;6.466;2024-02-21T00:24:31;21.27;;;9.23;;
20375;SDS011;10347;51.828;6.466;2024-02-21T00:26:57;27.70;;;10.77;;
20375;SDS011;10347;51.828;6.466;2024-02-21T00:29:22;24.60;;;10.07;;
20375;SDS011;10347;51.828;6.466;2024-02-21T00:31:49;22.70;;;9.25;;
20375;SDS011;10347;51.828;6.466;2024-02-21T00:34:14;26.25;;;10.05;;
20375;SDS011;10347;51.828;6.466;2024-02-21T00:36:40;22.08;;;9.55;;
20375;SDS011;10347;51.828;6.466;2024-02-21T00:39:06;25.30;;;9.13;;
20375;SDS011;10347;51.828;6.466;2024-02-21T00:41:31;25.20;;;9.90;;
20375;SDS011;10347;51.828;6.466;2024-02-21T00:43:58;20.98;;;9.65;;
20375;SDS011;10347;51.828;6.466;2024-02-21T00:46:23;21.95;;;9.43;;
20375;SDS011;10347;51.828;6.466;2024-02-21T00:48:49;25.83;;;9.13;;
20375;SDS011;10347;51.828;6.466;2024-02-21T00:51:15;23.42;;;9.25;;
20375;SDS011;10347;51.828;6.466;2024-02-21T00:53:42;18.17;;;9.05;;
20375;SDS011;10347;51.828;6.466;2024-02-21T00:56:07;15.23;;;8.13;;
20375;SDS011;10347;51.828;6.466;2024-02-21T00:58:33;23.88;;;10.32;;
20375;SDS011;10347;51.828;6.466;2024-02-21T01:01:00;24.67;;;9.75;;
20375;SDS011;10347;51.828;6.466;2024-02-21T01:03:25;26.27;;;11.18;;
20375;SDS011;10347;51.828;6.466;2024-02-21T01:05:51;23.63;;;8.82;;
20375;SDS011;10347;51.828;6.466;2024-02-21T01:08:17;20.33;;;9.00;;
20375;SDS011;10347;51.828;6.466;2024-02-21T01:10:42;28.73;;;10.80;;
20375;SDS011;10347;51.828;6.466;2024-02-21T01:13:08;19.65;;;9.43;;
20375;SDS011;10347;51.828;6.466;2024-02-21T01:15:34;18.77;;;9.00;;
20375;SDS011;10347;51.828;6.466;2024-02-21T01:18:00;20.70;;;8.88;;
20375;SDS011;10347;51.828;6.466;2024-02-21T01:20:26;28.17;;;9.52;;
20375;SDS011;10347;51.828;6.466;2024-02-21T01:22:52;21.45;;;10.13;;
20375;SDS011;10347;51.828;6.466;2024-02-21T01:25:17;23.35;;;10.13;;
20375;SDS011;10347;51.828;6.466;2024-02-21T01:27:43;24.10;;;8.95;;
20375;SDS011;10347;51.828;6.466;2024-02-21T01:30:08;18.55;;;8.43;;
20375;SDS011;10347;51.828;6.466;2024-02-21T01:32:35;17.65;;;8.43;;
20375;SDS011;10347;51.828;6.466;2024-02-21T01:35:01;21.98;;;8.32;;
20375;SDS011;10347;51.828;6.466;2024-02-21T01:37:27;16.55;;;7.85;;
20375;SDS011;10347;51.828;6.466;2024-02-21T01:39:52;20.02;;;9.57;;
20375;SDS011;10347;51.828;6.466;2024-02-21T01:42:18;20.00;;;8.98;;
20375;SDS011;10347;51.828;6.466;2024-02-21T01:44:44;17.98;;;8.73;;
20375;SDS011;10347;51.828;6.466;2024-02-21T01:47:10;20.15;;;9.95;;
20375;SDS011;10347;51.828;6.466;2024-02-21T01:49:36;21.30;;;9.77;;
20375;SDS011;10347;51.828;6.466;2024-02-21T01:52:02;17.13;;;9.02;;
20375;SDS011;10347;51.828;6.466;2024-02-21T01:54:28;23.13;;;10.63;;
20375;SDS011;10347;51.828;6.466;2024-02-21T01:56:54;20.58;;;10.20;;
20375;SDS011;10347;51.828;6.466;2024-02-21T01:59:20;22.20;;;9.73;;
20375;SDS011;10347;51.828;6.466;2024-02-21T02:01:47;27.95;;;10.00;;
20375;SDS011;10347;51.828;6.466;2024-02-21T02:04:13;26.63;;;10.25;;
20375;SDS011;10347;51.828;6.466;2024-02-21T02:06:39;20.15;;;9.23;;
20375;SDS011;10347;51.828;6.466;2024-02-21T02:09:06;19.95;;;9.55;;
20375;SDS011;10347;51.828;6.466;2024-02-21T02:11:32;23.73;;;10.10;;
20375;SDS011;10347;51.828;6.466;2024-02-21T02:13:58;28.00;;;10.82;;
20375;SDS011;10347;51.828;6.466;2024-02-21T02:16:23;23.63;;;9.30;;
20375;SDS011;10347;51.828;6.466;2024-02-21T02:18:49;22.60;;;8.80;;
20375;SDS011;10347;51.828;6.466;2024-02-21T02:21:40;20.10;;;8.82;;
20375;SDS011;10347;51.828;6.466;2024-02-21T02:24:04;20.92;;;9.55;;
20375;SDS011;10347;51.828;6.466;2024-02-21T02:26:31;22.15;;;9.43;;
20375;SDS011;10347;51.828;6.466;2024-02-21T02:28:56;19.48;;;8.57;;
20375;SDS011;10347;51.828;6.466;2024-02-21T02:31:22;22.40;;;9.38;;
20375;SDS011;10347;51.828;6.466;2024-02-21T02:33:47;21.90;;;9.23;;
20375;SDS011;10347;51.828;6.466;2024-02-21T02:36:13;21.13;;;9.32;;
20375;SDS011;10347;51.828;6.466;2024-02-21T02:38:39;23.27;;;9.52;;
20375;SDS011;10347;51.828;6.466;2024-02-21T02:41:04;17.02;;;9.25;;
20375;SDS011;10347;51.828;6.466;2024-02-21T02:43:30;19.50;;;9.27;;
20375;SDS011;10347;51.828;6.466;2024-02-21T02:45:56;17.42;;;8.70;;
20375;SDS011;10347;51.828;6.466;2024-02-21T02:48:22;27.30;;;9.48;;
20375;SDS011;10347;51.828;6.466;2024-02-21T02:50:47;25.70;;;11.57;;
20375;SDS011;10347;51.828;6.466;2024-02-21T02:53:14;18.83;;;8.63;;
20375;SDS011;10347;51.828;6.466;2024-02-21T02:55:40;21.42;;;8.02;;
20375;SDS011;10347;51.828;6.466;2024-02-21T02:58:05;22.30;;;8.73;;
20375;SDS011;10347;51.828;6.466;2024-02-21T03:00:31;18.17;;;8.32;;
20375;SDS011;10347;51.828;6.466;2024-02-21T03:03:01;21.67;;;8.32;;
20375;SDS011;10347;51.828;6.466;2024-02-21T03:05:29;15.25;;;7.68;;
20375;SDS011;10347;51.828;6.466;2024-02-21T03:07:54;18.10;;;7.85;;
20375;SDS011;10347;51.828;6.466;2024-02-21T03:10:20;14.48;;;6.85;;
20375;SDS011;10347;51.828;6.466;2024-02-21T03:12:46;16.45;;;7.38;;
20375;SDS011;10347;51.828;6.466;2024-02-21T03:15:12;19.10;;;8.27;;
20375;SDS011;10347;51.828;6.466;2024-02-21T03:17:38;19.90;;;7.65;;
20375;SDS011;10347;51.828;6.466;2024-02-21T03:20:05;27.40;;;8.88;;
20375;SDS011;10347;51.828;6.466;2024-02-21T03:22:34;14.07;;;6.88;;
20375;SDS011;10347;51.828;6.466;2024-02-21T03:24:59;17.48;;;7.72;;
20375;SDS011;10347;51.828;6.466;2024-02-21T03:27:25;16.27;;;7.70;;
20375;SDS011;10347;51.828;6.466;2024-02-21T03:29:51;14.10;;;6.78;;
20375;SDS011;10347;51.828;6.466;2024-02-21T03:32:16;14.30;;;6.40;;
20375;SDS011;10347;51.828;6.466;2024-02-21T03:34:42;17.40;;;7.53;;
20375;SDS011;10347;51.828;6.466;2024-02-21T03:37:07;18.30;;;7.15;;
20375;SDS011;10347;51.828;6.466;2024-02-21T03:39:33;15.05;;;6.93;;
20375;SDS011;10347;51.828;6.466;2024-02-21T03:41:58;16.75;;;7.38;;
20375;SDS011;10347;51.828;6.466;2024-02-21T03:44:30;14.23;;;6.85;;
20375;SDS011;10347;51.828;6.466;2024-02-21T03:46:56;16.40;;;6.03;;
20375;SDS011;10347;51.828;6.466;2024-02-21T03:49:22;15.52;;;6.32;;
20375;SDS011;10347;51.828;6.466;2024-02-21T03:51:47;17.33;;;6.50;;
20375;SDS011;10347;51.828;6.466;2024-02-21T03:54:13;15.65;;;6.55;;
20375;SDS011;10347;51.828;6.466;2024-02-21T03:56:38;17.23;;;6.60;;
20375;SDS011;10347;51.828;6.466;2024-02-21T03:59:05;15.13;;;6.53;;
20375;SDS011;10347;51.828;6.466;2024-02-21T04:01:31;16.45;;;7.00;;
20375;SDS011;10347;51.828;6.466;2024-02-21T04:03:57;16.85;;;6.88;;
20375;SDS011;10347;51.828;6.466;2024-02-21T04:06:22;15.63;;;6.45;;
20375;SDS011;10347;51.828;6.466;2024-02-21T04:08:48;15.18;;;7.55;;
20375;SDS011;10347;51.828;6.466;2024-02-21T04:11:13;21.65;;;7.07;;
20375;SDS011;10347;51.828;6.466;2024-02-21T04:13:39;14.73;;;6.13;;
20375;SDS011;10347;51.828;6.466;2024-02-21T04:16:05;18.17;;;6.78;;
20375;SDS011;10347;51.828;6.466;2024-02-21T04:18:31;15.57;;;6.75;;
20375;SDS011;10347;51.828;6.466;2024-02-21T04:20:56;9.45;;;5.82;;
20375;SDS011;10347;51.828;6.466;2024-02-21T04:23:22;18.13;;;6.13;;
20375;SDS011;10347;51.828;6.466;2024-02-21T04:25:47;15.80;;;7.10;;
20375;SDS011;10347;51.828;6.466;2024-02-21T04:28:13;14.95;;;6.20;;
20375;SDS011;10347;51.828;6.466;2024-02-21T04:30:38;13.32;;;6.35;;
20375;SDS011;10347;51.828;6.466;2024-02-21T04:33:04;14.57;;;6.13;;
20375;SDS011;10347;51.828;6.466;2024-02-21T04:35:30;15.70;;;6.78;;
20375;SDS011;10347;51.828;6.466;2024-02-21T04:37:55;14.50;;;6.75;;
20375;SDS011;10347;51.828;6.466;2024-02-21T04:40:21;13.13;;;7.07;;
20375;SDS011;10347;51.828;6.466;2024-02-21T04:42:46;13.65;;;6.63;;
20375;SDS011;10347;51.828;6.466;2024-02-21T04:45:12;13.18;;;6.45;;
20375;SDS011;10347;51.828;6.466;2024-02-21T04:47:38;14.82;;;6.88;;
20375;SDS011;10347;51.828;6.466;2024-02-21T04:50:03;18.17;;;7.15;;
20375;SDS011;10347;51.828;6.466;2024-02-21T04:52:30;17.10;;;7.35;;
20375;SDS011;10347;51.828;6.466;2024-02-21T04:54:56;14.60;;;7.03;;
20375;SDS011;10347;51.828;6.466;2024-02-21T04:57:21;16.52;;;7.40;;
20375;SDS011;10347;51.828;6.466;2024-02-21T04:59:47;20.05;;;7.82;;
20375;SDS011;10347;51.828;6.466;2024-02-21T05:02:13;18.52;;;7.10;;
20375;SDS011;10347;51.828;6.466;2024-02-21T05:04:39;11.18;;;7.07;;
20375;SDS011;10347;51.828;6.466;2024-02-21T05:07:06;16.15;;;7.75;;
20375;SDS011;10347;51.828;6.466;2024-02-21T05:09:32;18.90;;;7.90;;
20375;SDS011;10347;51.828;6.466;2024-02-21T05:11:57;20.20;;;8.32;;
20375;SDS011;10347;51.828;6.466;2024-02-21T05:14:26;13.10;;;7.20;;
20375;SDS011;10347;51.828;6.466;2024-02-21T05:16:54;16.73;;;7.45;;
20375;SDS011;10347;51.828;6.466;2024-02-21T05:19:20;12.60;;;7.25;;
20375;SDS011;10347;51.828;6.466;2024-02-21T05:21:45;13.63;;;6.95;;
20375;SDS011;10347;51.828;6.466;2024-02-21T05:24:11;16.52;;;7.07;;
20375;SDS011;10347;51.828;6.466;2024-02-21T05:26:37;14.23;;;7.45;;
20375;SDS011;10347;51.828;6.466;2024-02-21T05:29:03;15.63;;;7.43;;
20375;SDS011;10347;51.828;6.466;2024-02-21T05:34:16;14.75;;;7.68;;
20375;SDS011;10347;51.828;6.466;2024-02-21T05:36:44;18.50;;;8.90;;
20375;SDS011;10347;51.828;6.466;2024-02-21T05:39:09;15.90;;;8.60;;
20375;SDS011;10347;51.828;6.466;2024-02-21T05:41:35;18.25;;;8.90;;
20375;SDS011;10347;51.828;6.466;2024-02-21T05:44:01;18.48;;;8.75;;
20375;SDS011;10347;51.828;6.466;2024-02-21T05:46:26;22.45;;;10.25;;
20375;SDS011;10347;51.828;6.466;2024-02-21T05:48:52;16.90;;;8.98;;
20375;SDS011;10347;51.828;6.466;2024-02-21T05:51:18;17.92;;;8.60;;
20375;SDS011;10347;51.828;6.466;2024-02-21T05:53:44;16.05;;;8.32;;
20375;SDS011;10347;51.828;6.466;2024-02-21T05:56:12;15.52;;;8.70;;
20375;SDS011;10347;51.828;6.466;2024-02-21T05:58:39;19.73;;;9.00;;
20375;SDS011;10347;51.828;6.466;2024-02-21T06:01:05;12.75;;;8.02;;
20375;SDS011;10347;51.828;6.466;2024-02-21T06:03:31;17.75;;;8.15;;
20375;SDS011;10347;51.828;6.466;2024-02-21T06:05:58;12.95;;;8.32;;
20375;SDS011;10347;51.828;6.466;2024-02-21T06:08:24;18.88;;;8.95;;
20375;SDS011;10347;51.828;6.466;2024-02-21T06:10:49;19.98;;;8.98;;
20375;SDS011;10347;51.828;6.466;2024-02-21T06:13:19;13.43;;;8.02;;
20375;SDS011;10347;51.828;6.466;2024-02-21T06:15:48;19.50;;;8.50;;
20375;SDS011;10347;51.828;6.466;2024-02-21T06:18:15;13.73;;;7.88;;
20375;SDS011;10347;51.828;6.466;2024-02-21T06:20:44;17.85;;;7.65;;
20375;SDS011;10347;51.828;6.466;2024-02-21T06:23:11;18.13;;;7.80;;
20375;SDS011;10347;51.828;6.466;2024-02-21T06:25:36;15.02;;;7.90;;
20375;SDS011;10347;51.828;6.466;2024-02-21T06:28:03;15.95;;;7.47;;
20375;SDS011;10347;51.828;6.466;2024-02-21T06:30:28;18.15;;;8.48;;
20375;SDS011;10347;51.828;6.466;2024-02-21T06:32:54;17.65;;;7.30;;
20375;SDS011;10347;51.828;6.466;2024-02-21T06:35:21;15.82;;;8.38;;
20375;SDS011;10347;51.828;6.466;2024-02-21T06:37:49;13.27;;;7.30;;
20375;SDS011;10347;51.828;6.466;2024-02-21T06:40:16;16.65;;;7.75;;
20375;SDS011;10347;51.828;6.466;2024-02-21T06:42:48;12.40;;;7.28;;
20375;SDS011;10347;51.828;6.466;2024-02-21T06:45:14;14.55;;;7.07;;
20375;SDS011;10347;51.828;6.466;2024-02-21T06:47:41;12.38;;;7.13;;
20375;SDS011;10347;51.828;6.466;2024-02-21T06:50:07;13.88;;;7.68;;
20375;SDS011;10347;51.828;6.466;2024-02-21T06:52:33;13.50;;;6.28;;
20375;SDS011;10347;51.828;6.466;2024-02-21T06:54:59;13.50;;;6.55;;
20375;SDS011;10347;51.828;6.466;2024-02-21T06:57:25;16.58;;;6.25;;
20375;SDS011;10347;51.828;6.466;2024-02-21T06:59:50;15.25;;;7.65;;
20375;SDS011;10347;51.828;6.466;2024-02-21T07:02:16;10.98;;;6.15;;
20375;SDS011;10347;51.828;6.466;2024-02-21T07:04:41;15.75;;;6.70;;
20375;SDS011;10347;51.828;6.466;2024-02-21T07:07:08;15.57;;;7.00;;
20375;SDS011;10347;51.828;6.466;2024-02-21T07:09:34;13.55;;;7.18;;
20375;SDS011;10347;51.828;6.466;2024-02-21T07:11:59;17.33;;;7.47;;
20375;SDS011;10347;51.828;6.466;2024-02-21T07:14:25;13.95;;;7.38;;
20375;SDS011;10347;51.828;6.466;2024-02-21T07:16:52;17.88;;;7.35;;
20375;SDS011;10347;51.828;6.466;2024-02-21T07:19:18;16.30;;;6.72;;
20375;SDS011;10347;51.828;6.466;2024-02-21T07:21:44;16.35;;;7.28;;
20375;SDS011;10347;51.828;6.466;2024-02-21T07:24:10;15.65;;;6.40;;
20375;SDS011;10347;51.828;6.466;2024-02-21T07:26:35;11.85;;;6.18;;
20375;SDS011;10347;51.828;6.466;2024-02-21T07:29:01;15.18;;;6.40;;
20375;SDS011;10347;51.828;6.466;2024-02-21T07:31:26;13.45;;;6.25;;
20375;SDS011;10347;51.828;6.466;2024-02-21T07:33:52;15.27;;;6.65;;
20375;SDS011;10347;51.828;6.466;2024-02-21T07:36:25;15.60;;;7.00;;
20375;SDS011;10347;51.828;6.466;2024-02-21T07:38:54;16.25;;;7.00;;
20375;SDS011;10347;51.828;6.466;2024-02-21T07:41:20;11.98;;;6.72;;
20375;SDS011;10347;51.828;6.466;2024-02-21T07:43:45;14.48;;;6.35;;
20375;SDS011;10347;51.828;6.466;2024-02-21T07:46:13;13.02;;;6.32;;
20375;SDS011;10347;51.828;6.466;2024-02-21T07:48:39;17.42;;;7.32;;
20375;SDS011;10347;51.828;6.466;2024-02-21T07:51:04;11.48;;;6.65;;
20375;SDS011;10347;51.828;6.466;2024-02-21T07:53:30;17.35;;;6.63;;
20375;SDS011;10347;51.828;6.466;2024-02-21T07:55:56;13.35;;;6.70;;
20375;SDS011;10347;51.828;6.466;2024-02-21T07:58:21;20.77;;;7.60;;
20375;SDS011;10347;51.828;6.466;2024-02-21T08:00:47;14.93;;;7.30;;
20375;SDS011;10347;51.828;6.466;2024-02-21T08:03:13;14.65;;;7.10;;
20375;SDS011;10347;51.828;6.466;2024-02-21T08:05:40;17.45;;;7.88;;
20375;SDS011;10347;51.828;6.466;2024-02-21T08:08:06;18.08;;;7.68;;
20375;SDS011;10347;51.828;6.466;2024-02-21T08:10:33;12.77;;;7.00;;
20375;SDS011;10347;51.828;6.466;2024-02-21T08:12:58;13.88;;;6.78;;
20375;SDS011;10347;51.828;6.466;2024-02-21T08:15:24;10.68;;;6.13;;
20375;SDS011;10347;51.828;6.466;2024-02-21T08:17:53;14.30;;;7.03;;
20375;SDS011;10347;51.828;6.466;2024-02-21T08:20:23;15.85;;;7.35;;
20375;SDS011;10347;51.828;6.466;2024-02-21T08:22:49;17.63;;;7.80;;
20375;SDS011;10347;51.828;6.466;2024-02-21T08:25:15;12.30;;;6.57;;
20375;SDS011;10347;51.828;6.466;2024-02-21T08:27:40;17.92;;;7.47;;
20375;SDS011;10347;51.828;6.466;2024-02-21T08:30:06;12.50;;;6.35;;
20375;SDS011;10347;51.828;6.466;2024-02-21T08:32:33;14.52;;;6.88;;
20375;SDS011;10347;51.828;6.466;2024-02-21T08:35:00;13.50;;;6.90;;
20375;SDS011;10347;51.828;6.466;2024-02-21T08:37:30;13.90;;;7.15;;
20375;SDS011;10347;51.828;6.466;2024-02-21T08:39:59;14.05;;;6.90;;
20375;SDS011;10347;51.828;6.466;2024-02-21T08:42:32;12.98;;;6.88;;
20375;SDS011;10347;51.828;6.466;2024-02-21T08:45:01;15.32;;;6.93;;
20375;SDS011;10347;51.828;6.466;2024-02-21T08:47:27;15.52;;;7.50;;
20375;SDS011;10347;51.828;6.466;2024-02-21T08:49:53;14.48;;;8.23;;
20375;SDS011;10347;51.828;6.466;2024-02-21T08:52:18;17.25;;;7.55;;
20375;SDS011;10347;51.828;6.466;2024-02-21T08:54:44;15.73;;;7.53;;
20375;SDS011;10347;51.828;6.466;2024-02-21T08:57:09;13.02;;;6.40;;
20375;SDS011;10347;51.828;6.466;2024-02-21T08:59:35;10.40;;;6.22;;
20375;SDS011;10347;51.828;6.466;2024-02-21T09:02:01;14.05;;;7.13;;
20375;SDS011;10347;51.828;6.466;2024-02-21T09:04:27;12.60;;;6.80;;
20375;SDS011;10347;51.828;6.466;2024-02-21T09:06:53;13.13;;;6.68;;
20375;SDS011;10347;51.828;6.466;2024-02-21T09:09:19;12.60;;;6.43;;
20375;SDS011;10347;51.828;6.466;2024-02-21T09:11:45;14.07;;;6.60;;
20375;SDS011;10347;51.828;6.466;2024-02-21T09:14:10;11.88;;;6.38;;
20375;SDS011;10347;51.828;6.466;2024-02-21T09:16:36;13.02;;;6.60;;
20375;SDS011;10347;51.828;6.466;2024-02-21T09:19:02;9.82;;;5.85;;
20375;SDS011;10347;51.828;6.466;2024-02-21T09:21:28;10.65;;;5.80;;
20375;SDS011;10347;51.828;6.466;2024-02-21T09:23:53;11.18;;;6.03;;
20375;SDS011;10347;51.828;6.466;2024-02-21T09:26:19;11.98;;;5.53;;
20375;SDS011;10347;51.828;6.466;2024-02-21T09:28:45;13.52;;;6.00;;
20375;SDS011;10347;51.828;6.466;2024-02-21T09:31:10;12.43;;;5.75;;
20375;SDS011;10347;51.828;6.466;2024-02-21T09:33:36;11.75;;;5.90;;
20375;SDS011;10347;51.828;6.466;2024-02-21T09:36:02;9.18;;;5.45;;
20375;SDS011;10347;51.828;6.466;2024-02-21T09:38:30;10.25;;;5.32;;
20375;SDS011;10347;51.828;6.466;2024-02-21T09:41:00;6.85;;;5.22;;
20375;SDS011;10347;51.828;6.466;2024-02-21T09:43:33;7.93;;;5.05;;
20375;SDS011;10347;51.828;6.466;2024-02-21T09:46:00;12.27;;;5.38;;
20375;SDS011;10347;51.828;6.466;2024-02-21T09:48:30;8.98;;;5.20;;
20375;SDS011;10347;51.828;6.466;2024-02-21T09:51:28;11.77;;;4.93;;
20375;SDS011;10347;51.828;6.466;2024-02-21T09:53:57;7.88;;;4.80;;
20375;SDS011;10347;51.828;6.466;2024-02-21T09:56:24;7.35;;;4.47;;
20375;SDS011;10347;51.828;6.466;2024-02-21T09:58:50;9.80;;;4.88;;
20375;SDS011;10347;51.828;6.466;2024-02-21T10:01:15;8.40;;;4.80;;
20375;SDS011;10347;51.828;6.466;2024-02-21T10:03:41;8.88;;;4.30;;
20375;SDS011;10347;51.828;6.466;2024-02-21T10:06:08;8.30;;;4.60;;
20375;SDS011;10347;51.828;6.466;2024-02-21T10:08:34;9.38;;;5.38;;
20375;SDS011;10347;51.828;6.466;2024-02-21T10:11:00;10.90;;;4.40;;
20375;SDS011;10347;51.828;6.466;2024-02-21T10:13:27;7.05;;;3.92;;
20375;SDS011;10347;51.828;6.466;2024-02-21T10:16:06;6.63;;;4.03;;
20375;SDS011;10347;51.828;6.466;2024-02-21T10:18:33;8.60;;;3.97;;
20375;SDS011;10347;51.828;6.466;2024-02-21T10:21:08;6.97;;;4.28;;
20375;SDS011;10347;51.828;6.466;2024-02-21T10:23:43;8.45;;;3.90;;
20375;SDS011;10347;51.828;6.466;2024-02-21T10:26:16;8.00;;;3.88;;
20375;SDS011;10347;51.828;6.466;2024-02-21T10:28:45;5.75;;;3.90;;
20375;SDS011;10347;51.828;6.466;2024-02-21T10:31:21;6.50;;;4.28;;
20375;SDS011;10347;51.828;6.466;2024-02-21T10:33:55;4.95;;;3.97;;
20375;SDS011;10347;51.828;6.466;2024-02-21T10:36:25;8.52;;;4.75;;
20375;SDS011;10347;51.828;6.466;2024-02-21T10:38:54;6.10;;;4.03;;
20375;SDS011;10347;51.828;6.466;2024-02-21T10:41:20;8.18;;;4.63;;
20375;SDS011;10347;51.828;6.466;2024-02-21T10:43:50;7.28;;;4.43;;
20375;SDS011;10347;51.828;6.466;2024-02-21T10:46:20;8.25;;;4.40;;
20375;SDS011;10347;51.828;6.466;2024-02-21T10:48:48;10.93;;;4.97;;
20375;SDS011;10347;51.828;6.466;2024-02-21T10:51:21;5.72;;;4.22;;
20375;SDS011;10347;51.828;6.466;2024-02-21T10:53:58;8.70;;;4.38;;
20375;SDS011;10347;51.828;6.466;2024-02-21T10:56:46;7.85;;;4.65;;
20375;SDS011;10347;51.828;6.466;2024-02-21T10:59:14;12.45;;;5.15;;
20375;SDS011;10347;51.828;6.466;2024-02-21T11:01:42;9.75;;;5.13;;
20375;SDS011;10347;51.828;6.466;2024-02-21T11:04:08;6.65;;;4.38;;
20375;SDS011;10347;51.828;6.466;2024-02-21T11:06:36;12.57;;;5.70;;
20375;SDS011;10347;51.828;6.466;2024-02-21T11:09:04;11.82;;;5.18;;
20375;SDS011;10347;51.828;6.466;2024-02-21T11:11:39;12.73;;;4.85;;
20375;SDS011;10347;51.828;6.466;2024-02-21T11:14:18;11.10;;;4.93;;
20375;SDS011;10347;51.828;6.466;2024-02-21T11:16:45;12.10;;;4.70;;
20375;SDS011;10347;51.828;6.466;2024-02-21T11:19:27;9.57;;;4.95;;
20375;SDS011;10347;51.828;6.466;2024-02-21T11:21:54;14.38;;;5.78;;
20375;SDS011;10347;51.828;6.466;2024-02-21T11:24:30;11.43;;;4.63;;
20375;SDS011;10347;51.828;6.466;2024-02-21T11:27:11;12.65;;;5.15;;
20375;SDS011;10347;51.828;6.466;2024-02-21T11:29:47;10.68;;;4.88;;
20375;SDS011;10347;51.828;6.466;2024-02-21T11:32:18;7.65;;;4.80;;
20375;SDS011;10347;51.828;6.466;2024-02-21T11:37:28;10.48;;;3.92;;
20375;SDS011;10347;51.828;6.466;2024-02-21T11:39:55;10.90;;;5.07;;
20375;SDS011;10347;51.828;6.466;2024-02-21T11:42:21;8.02;;;4.53;;
20375;SDS011;10347;51.828;6.466;2024-02-21T11:44:47;9.18;;;4.35;;
20375;SDS011;10347;51.828;6.466;2024-02-21T11:47:14;8.52;;;4.68;;
20375;SDS011;10347;51.828;6.466;2024-02-21T11:49:44;9.57;;;4.30;;
20375;SDS011;10347;51.828;6.466;2024-02-21T11:52:15;11.82;;;4.18;;
20375;SDS011;10347;51.828;6.466;2024-02-21T11:54:41;9.23;;;4.03;;
20375;SDS011;10347;51.828;6.466;2024-02-21T11:57:07;15.02;;;4.30;;
20375;SDS011;10347;51.828;6.466;2024-02-21T11:59:33;10.35;;;4.20;;
20375;SDS011;10347;51.828;6.466;2024-02-21T12:01:59;11.48;;;3.65;;
20375;SDS011;10347;51.828;6.466;2024-02-21T12:04:25;9.75;;;4.55;;
20375;SDS011;10347;51.828;6.466;2024-02-21T12:06:57;12.25;;;4.15;;
20375;SDS011;10347;51.828;6.466;2024-02-21T12:09:23;9.27;;;3.72;;
20375;SDS011;10347;51.828;6.466;2024-02-21T12:12:00;8.75;;;4.20;;
20375;SDS011;10347;51.828;6.466;2024-02-21T12:14:28;10.40;;;4.38;;
20375;SDS011;10347;51.828;6.466;2024-02-21T12:16:55;8.77;;;4.20;;
20375;SDS011;10347;51.828;6.466;2024-02-21T12:19:21;9.20;;;4.60;;
20375;SDS011;10347;51.828;6.466;2024-02-21T12:21:48;7.15;;;4.35;;
20375;SDS011;10347;51.828;6.466;2024-02-21T12:24:24;12.05;;;4.05;;
20375;SDS011;10347;51.828;6.466;2024-02-21T12:26:51;12.02;;;4.88;;
20375;SDS011;10347;51.828;6.466;2024-02-21T12:29:20;13.90;;;4.57;;
20375;SDS011;10347;51.828;6.466;2024-02-21T12:31:46;11.18;;;4.20;;
20375;SDS011;10347;51.828;6.466;2024-02-21T12:34:12;8.65;;;4.50;;
20375;SDS011;10347;51.828;6.466;2024-02-21T12:36:41;11.98;;;4.57;;
20375;SDS011;10347;51.828;6.466;2024-02-21T12:39:08;8.80;;;4.10;;
20375;SDS011;10347;51.828;6.466;2024-02-21T12:41:35;9.73;;;4.05;;
20375;SDS011;10347;51.828;6.466;2024-02-21T12:44:03;8.20;;;4.10;;
20375;SDS011;10347;51.828;6.466;2024-02-21T12:46:32;7.20;;;4.00;;
20375;SDS011;10347;51.828;6.466;2024-02-21T12:48:58;9.60;;;4.05;;
20375;SDS011;10347;51.828;6.466;2024-02-21T12:51:23;8.77;;;4.15;;
20375;SDS011;10347;51.828;6.466;2024-02-21T12:53:49;8.60;;;4.07;;
20375;SDS011;10347;51.828;6.466;2024-02-21T12:56:15;9.68;;;4.00;;
20375;SDS011;10347;51.828;6.466;2024-02-21T12:58:41;6.10;;;3.55;;
20375;SDS011;10347;51.828;6.466;2024-02-21T13:01:07;9.07;;;4.20;;
20375;SDS011;10347;51.828;6.466;2024-02-21T13:03:33;8.40;;;4.20;;
20375;SDS011;10347;51.828;6.466;2024-02-21T13:05:58;8.57;;;3.92;;
20375;SDS011;10347;51.828;6.466;2024-02-21T13:08:24;9.02;;;4.28;;
20375;SDS011;10347;51.828;6.466;2024-02-21T13:10:50;9.38;;;4.35;;
20375;SDS011;10347;51.828;6.466;2024-02-21T13:13:15;9.90;;;4.07;;
20375;SDS011;10347;51.828;6.466;2024-02-21T13:15:41;6.80;;;3.92;;
20375;SDS011;10347;51.828;6.466;2024-02-21T13:18:09;6.72;;;3.95;;
20375;SDS011;10347;51.828;6.466;2024-02-21T13:20:35;5.10;;;3.78;;
20375;SDS011;10347;51.828;6.466;2024-02-21T13:23:01;10.77;;;4.32;;
20375;SDS011;10347;51.828;6.466;2024-02-21T13:25:27;6.50;;;3.83;;
20375;SDS011;10347;51.828;6.466;2024-02-21T13:27:53;6.22;;;3.72;;
20375;SDS011;10347;51.828;6.466;2024-02-21T13:30:18;9.30;;;4.10;;
20375;SDS011;10347;51.828;6.466;2024-02-21T13:32:44;8.05;;;4.03;;
20375;SDS011;10347;51.828;6.466;2024-02-21T13:35:13;8.10;;;3.83;;
20375;SDS011;10347;51.828;6.466;2024-02-21T13:37:43;6.65;;;3.75;;
20375;SDS011;10347;51.828;6.466;2024-02-21T13:40:08;7.07;;;3.90;;
20375;SDS011;10347;51.828;6.466;2024-02-21T13:42:35;7.90;;;4.50;;
20375;SDS011;10347;51.828;6.466;2024-02-21T13:45:01;9.07;;;4.05;;
20375;SDS011;10347;51.828;6.466;2024-02-21T13:47:27;7.28;;;4.32;;
20375;SDS011;10347;51.828;6.466;2024-02-21T13:49:54;7.00;;;4.68;;
20375;SDS011;10347;51.828;6.466;2024-02-21T13:52:20;8.27;;;3.70;;
20375;SDS011;10347;51.828;6.466;2024-02-21T13:54:46;10.27;;;3.80;;
20375;SDS011;10347;51.828;6.466;2024-02-21T13:57:12;7.60;;;3.97;;
20375;SDS011;10347;51.828;6.466;2024-02-21T13:59:39;7.85;;;3.90;;
20375;SDS011;10347;51.828;6.466;2024-02-21T14:02:05;7.70;;;3.83;;
20375;SDS011;10347;51.828;6.466;2024-02-21T14:04:33;5.82;;;3.38;;
20375;SDS011;10347;51.828;6.466;2024-02-21T14:06:59;6.13;;;3.10;;
20375;SDS011;10347;51.828;6.466;2024-02-21T14:09:25;7.65;;;4.10;;
20375;SDS011;10347;51.828;6.466;2024-02-21T14:11:51;5.85;;;3.35;;
20375;SDS011;10347;51.828;6.466;2024-02-21T14:14:17;7.38;;;3.35;;
20375;SDS011;10347;51.828;6.466;2024-02-21T14:16:42;5.63;;;3.30;;
20375;SDS011;10347;51.828;6.466;2024-02-21T14:19:08;8.88;;;3.90;;
20375;SDS011;10347;51.828;6.466;2024-02-21T14:21:34;5.53;;;3.20;;
20375;SDS011;10347;51.828;6.466;2024-02-21T14:24:03;6.47;;;3.40;;
20375;SDS011;10347;51.828;6.466;2024-02-21T14:26:30;7.78;;;3.40;;
20375;SDS011;10347;51.828;6.466;2024-02-21T14:28:56;6.43;;;3.35;;
20375;SDS011;10347;51.828;6.466;2024-02-21T14:31:22;4.70;;;3.13;;
20375;SDS011;10347;51.828;6.466;2024-02-21T14:33:48;9.30;;;3.45;;
20375;SDS011;10347;51.828;6.466;2024-02-21T14:36:13;10.73;;;3.50;;
20375;SDS011;10347;51.828;6.466;2024-02-21T14:38:40;7.00;;;3.28;;
20375;SDS011;10347;51.828;6.466;2024-02-21T14:41:08;6.30;;;3.40;;